Roanoke, VA (24027)

7:47 PM EST on February 09, 2016 (GMT -0500)
Hurt Park ES | | Change Station
CLOSE
Current Station
Personal Weather Station
Location: Roanoke, VA
Elevation: 1010 ft
Nearby Weather Stations

Elev 1010 ft 37.28 °N, 79.97 °W | Updated 2 minutes ago

Overcast
Overcast
26.2 °F
Feels Like 19 °F
N
6.0
Wind Variable Wind from West
Gusts 11.0 mph

Today
High -- | Low -- °F
--% Chance of Precip.
Yesterday
High -- | Low -- °F
Precip. -- in
Pressure 29.79 in
Visibility 10.0 miles
Clouds Scattered Clouds 4300 ft
Overcast 8500 ft
Windchill 19 °F
Dew Point 13 °F
Humidity 57%
Rainfall 0.00 in
Snow Depth Not available.
7:15 AM 5:52 PM
Waxing Crescent, 3% visible
METAR KROA 092354Z 29014G24KT 10SM SCT043 OVC085 M03/M12 A2975 RMK AO2 PK WND 29028/2311 SLP086 T10331122 10006 21033 51029
Pressure 29.79 in
Visibility 10.0 miles
Clouds Scattered Clouds 4300 ft
Overcast 8500 ft
Windchill 19 °F
Dew Point 13 °F
Humidity 57%
Rainfall 0.00 in
Snow Depth Not available.
7:15 AM 5:52 PM
Waxing Crescent, 3% visible
METAR KROA 092354Z 29014G24KT 10SM SCT043 OVC085 M03/M12 A2975 RMK AO2 PK WND 29028/2311 SLP086 T10331122 10006 21033 51029
Winter Storm Nacio, the third winter storm in five days to affect the Northeast, is bringing pockets of locally heavy snow to parts of the Ohio Valley, Appalachians and mid-Atlantic states Tuesday. Winter storm warnings are posted for parts of southern Pennsylvania, southern Ohio and the higher peaks of the Appalachians. Winter weather advisories, generally for lighter snow accumulations, stretch from northeast Alabama and far north Georgia to southern Connecticut and Long Island.

10-Day Weather Forecast

Almanac

Astronomy

Feb. 09, 2016 Rise Set
Actual Time
Civil Twilight
Nautical Twilight
Astronomical Twilight
Moon
Length of Visible Light
Length of Day
Tomorrow will be .
, % of the Moon is Illuminated

Today's Extremes

State Highs State Lows

Community

WunderPhotos

Upload Photos

1,891,752 photos uploaded!

WunderBlog® & News

Nearby

Air Quality

  Air Quality AQ Index Pollutant
Not available.

Snow Depth

Station Depth Elevation

Earthquake Activity

City Distance Mag. Time & Date
Minimum magnitude displayed is 2.5.

Coastal Water Temperatures

Place Temperature

Stations

Nearby Weather Stations

Station Location Temp. Windchill Dew Point Humidity Wind Precip. Elev Updated Type
                   

Watches & Warnings

There are currently no watches in effect.